Time;durP1;ratioP1;P1;durP2;ratioP2;P2;SDS_P1;SDS_P2;PMS_P1;PMS_P2;Temp;Humidity;BMP_temperature;BMP_pressure;BME280_temperature;BME280_humidity;BME280_pressure;Samples;Min_cycle;Max_cycle;Signal;HPM_P1;HPM_P2
2021/03/25 00:01:32;;;;;;;49.75;25.02;;;;;;;9.00;50.52;100681.13;4973989;28;20203;-74
2021/03/25 00:03:58;;;;;;;49.50;23.67;;;;;;;9.03;50.32;100681.88;4972005;28;20051;-74
2021/03/25 00:06:25;;;;;;;52.58;25.33;;;;;;;9.02;50.40;100682.78;4972143;28;20142;-74
2021/03/25 00:08:53;;;;;;;89.95;40.30;;;;;;;9.00;50.27;100670.66;4973903;28;20146;-74
2021/03/25 00:11:19;;;;;;;73.55;34.38;;;;;;;8.96;50.40;100679.47;4973815;28;20146;-73
2021/03/25 00:13:46;;;;;;;65.20;31.77;;;;;;;8.95;50.49;100672.50;4975890;28;20089;-73
2021/03/25 00:16:13;;;;;;;71.60;34.38;;;;;;;8.97;50.49;100670.72;4974049;28;20074;-74
2021/03/25 00:18:40;;;;;;;73.65;34.03;;;;;;;8.98;50.34;100669.84;4974247;28;20063;-73
2021/03/25 00:21:07;;;;;;;70.20;33.55;;;;;;;9.00;50.48;100666.28;4974579;28;20070;-75
2021/03/25 00:23:34;;;;;;;75.75;34.38;;;;;;;9.01;50.53;100667.13;4971745;28;20380;-73
2021/03/25 00:26:01;;;;;;;62.38;31.52;;;;;;;9.00;50.26;100660.19;4972084;28;20138;-74
2021/03/25 00:28:28;;;;;;;64.22;32.67;;;;;;;9.00;50.39;100662.81;4974415;28;20051;-73
2021/03/25 00:30:54;;;;;;;67.53;32.65;;;;;;;9.03;50.15;100655.75;4972636;28;20075;-73
2021/03/25 00:33:21;;;;;;;75.10;34.08;;;;;;;9.00;50.20;100660.19;4973229;28;20137;-73
2021/03/25 00:35:48;;;;;;;80.05;34.42;;;;;;;8.96;50.13;100648.09;4974053;28;20149;-73
2021/03/25 00:38:14;;;;;;;85.50;37.13;;;;;;;8.97;50.17;100652.44;4976091;28;20145;-73
2021/03/25 00:40:40;;;;;;;86.10;38.88;;;;;;;8.97;50.04;100649.81;4983331;28;20054;-73
2021/03/25 00:43:09;;;;;;;63.83;30.63;;;;;;;8.98;50.12;100649.78;4978996;28;20062;-74
2021/03/25 00:45:37;;;;;;;58.90;29.52;;;;;;;8.99;49.82;100642.78;4972346;28;20031;-73
2021/03/25 00:48:04;;;;;;;51.63;27.27;;;;;;;8.96;49.82;100648.97;4979601;28;20158;-74
2021/03/25 00:50:32;;;;;;;49.60;25.45;;;;;;;8.93;49.93;100638.53;4972183;28;20522;-73
2021/03/25 00:52:59;;;;;;;45.90;25.40;;;;;;;8.94;49.64;100644.63;4973697;28;20150;-74
2021/03/25 00:55:26;;;;;;;47.88;26.05;;;;;;;8.94;49.66;100644.63;4973226;28;20070;-75
2021/03/25 00:57:53;;;;;;;45.47;25.30;;;;;;;8.93;49.80;100642.91;4972543;28;20046;-74
2021/03/25 01:00:24;;;;;;;55.00;28.08;;;;;;;8.89;49.72;100641.28;4973323;28;20058;-73
2021/03/25 01:02:50;;;;;;;56.60;29.08;;;;;;;8.91;49.61;100645.56;4973740;28;20050;-74
2021/03/25 01:05:17;;;;;;;54.17;28.38;;;;;;;8.90;49.86;100640.38;4973721;28;20106;-75
2021/03/25 01:08:29;;;;;;;59.33;30.58;;;;;;;8.90;49.94;100632.53;4973854;28;20129;-74
2021/03/25 01:11:00;;;;;;;59.55;32.58;;;;;;;8.94;49.88;100628.94;4971744;28;20050;-75
2021/03/25 01:13:30;;;;;;;66.40;32.95;;;;;;;8.94;49.79;100621.09;4968060;28;20069;-75
2021/03/25 01:15:58;;;;;;;65.05;30.77;;;;;;;8.92;49.81;100628.13;4968414;28;20105;-74
2021/03/25 01:18:25;;;;;;;61.08;30.60;;;;;;;8.93;49.84;100620.25;4973359;28;20070;-75
2021/03/25 01:20:51;;;;;;;66.13;31.48;;;;;;;8.90;49.88;100624.69;4973313;28;20105;-74
2021/03/25 01:23:17;;;;;;;62.22;30.73;;;;;;;8.89;49.83;100621.22;4972524;28;20051;-74
2021/03/25 01:25:44;;;;;;;57.40;28.77;;;;;;;8.89;49.66;100620.38;4968148;28;20451;-74
2021/03/25 01:28:13;;;;;;;65.45;32.58;;;;;;;8.83;49.74;100621.41;4965776;28;20043;-73
2021/03/25 01:30:40;;;;;;;64.32;29.40;;;;;;;8.80;50.04;100611.88;4968295;28;20055;-75
2021/03/25 01:33:09;;;;;;;60.28;31.00;;;;;;;8.70;50.25;100610.38;4976765;28;20068;-74
2021/03/25 01:35:38;;;;;;;58.83;29.67;;;;;;;8.71;50.47;100614.69;4970174;28;20075;-75
2021/03/25 01:38:06;;;;;;;61.47;31.38;;;;;;;8.73;50.31;100615.53;4969394;28;20046;-74
2021/03/25 01:40:36;;;;;;;83.22;38.58;;;;;;;8.77;50.20;100621.56;4963913;28;20058;-74
2021/03/25 01:43:22;;;;;;;83.38;40.42;;;;;;;8.75;50.50;100613.75;4972882;28;20050;-73
2021/03/25 01:45:54;;;;;;;86.72;41.25;;;;;;;8.74;50.46;100617.22;4968579;28;20050;-73
2021/03/25 01:48:24;;;;;;;78.25;38.03;;;;;;;8.73;50.48;100610.28;4975132;28;20059;-74
2021/03/25 01:50:52;;;;;;;78.85;35.75;;;;;;;8.75;50.46;100613.75;4969556;28;20065;-74
2021/03/25 01:53:43;;;;;;;78.55;36.42;;;;;;;8.64;50.89;100605.31;4972118;28;20401;-73
2021/03/25 01:56:16;;;;;;;;;;;;;;;8.77;50.41;100606.72;4970064;28;20068;-74
2021/03/25 01:59:28;;;;;;;65.65;33.83;;;;;;;8.62;50.79;100596.66;4973929;28;19977;-74
2021/03/25 02:01:56;;;;;;;;;;;;;;;8.74;50.23;100606.78;4956267;28;20058;-74
2021/03/25 02:04:33;;;;;;;59.58;30.02;;;;;;;8.56;50.69;100594.19;4970543;28;19930;-73
2021/03/25 02:07:04;;;;;;;63.03;29.73;;;;;;;8.51;51.04;100598.66;4974151;28;20488;-75
2021/03/25 02:09:43;;;;;;;63.10;32.28;;;;;;;8.53;51.13;100597.72;4971661;28;20047;-75
2021/03/25 02:12:19;;;;;;;60.83;30.40;;;;;;;8.57;51.09;100595.91;4974730;28;20407;-72
2021/03/25 02:14:56;;;;;;;65.28;31.90;;;;;;;8.61;51.12;100594.06;4968298;28;20055;-74
2021/03/25 02:17:27;;;;;;;63.40;32.20;;;;;;;8.64;51.12;100594.84;4972338;28;20554;-74
2021/03/25 02:20:41;;;;;;;65.55;32.45;;;;;;;8.66;51.15;100593.06;4971581;28;20051;-72
2021/03/25 02:23:31;;;;;;;67.30;32.65;;;;;;;8.67;50.91;100602.63;4970112;28;20054;-73
2021/03/25 02:26:02;;;;;;;63.50;32.10;;;;;;;8.68;50.83;100590.41;4971740;28;20063;-75
2021/03/25 02:28:44;;;;;;;58.03;29.45;;;;;;;8.61;51.23;100588.84;4971114;28;20475;-73
2021/03/25 02:31:17;;;;;;;59.08;30.20;;;;;;;8.63;50.97;100587.91;4971276;28;20058;-74
2021/03/25 02:33:48;;;;;;;58.28;30.08;;;;;;;8.65;50.98;100595.72;4974738;28;20047;-73
2021/03/25 02:36:18;;;;;;;59.90;31.60;;;;;;;8.65;50.89;100595.72;4970426;28;20050;-73
2021/03/25 02:38:48;;;;;;;48.13;24.87;;;;;;;8.62;51.16;100591.41;4972923;28;20050;-73
2021/03/25 02:41:19;;;;;;;71.75;33.53;;;;;;;8.57;51.15;100582.84;4971938;28;20320;-75
2021/03/25 02:43:50;;;;;;;68.20;32.90;;;;;;;8.50;51.47;100581.25;4972966;28;20061;-74
2021/03/25 02:46:21;;;;;;;74.45;34.33;;;;;;;8.50;51.50;100578.66;4965447;28;20546;-75
2021/03/25 02:48:48;;;;;;;;;;;;;;;8.69;50.85;100571.22;4974910;28;20039;-74
2021/03/25 02:51:19;;;;;;;66.55;31.48;;;;;;;8.58;51.13;100583.69;4968918;28;19930;-74
2021/03/25 02:53:46;;;;;;;62.90;32.67;;;;;;;8.54;51.37;100578.56;4971291;28;20419;-74
2021/03/25 02:56:19;;;;;;;67.97;33.95;;;;;;;8.53;51.59;100581.19;4969290;28;20078;-74
2021/03/25 02:58:49;;;;;;;68.35;34.17;;;;;;;8.52;51.48;100576.84;4971748;28;20054;-73
2021/03/25 03:01:19;;;;;;;62.72;31.15;;;;;;;8.46;51.60;100574.41;4970272;28;20118;-73
2021/03/25 03:03:51;;;;;;;66.68;32.00;;;;;;;8.36;52.03;100571.16;4973126;28;20055;-73
2021/03/25 03:06:23;;;;;;;59.90;32.42;;;;;;;8.36;52.00;100573.78;4971743;28;20050;-73
2021/03/25 03:08:51;;;;;;;63.38;32.42;;;;;;;8.34;52.07;100569.50;4971379;28;20062;-73
2021/03/25 03:11:21;;;;;;;65.03;33.40;;;;;;;8.36;52.11;100568.56;4969830;28;20046;-73
2021/03/25 03:13:53;;;;;;;59.55;31.38;;;;;;;8.39;52.02;100565.00;4970187;28;20432;-73
2021/03/25 03:16:23;;;;;;;56.08;29.85;;;;;;;8.35;51.88;100563.38;4971185;28;20047;-72
2021/03/25 03:18:55;;;;;;;41.25;22.55;;;;;;;8.37;52.06;100565.03;4970402;28;20054;-74
2021/03/25 03:21:29;;;;;;;50.60;27.75;;;;;;;8.34;52.12;100572.97;4969991;28;20046;-73
2021/03/25 03:23:55;;;;;;;54.20;26.33;;;;;;;8.35;51.90;100560.75;4970143;28;20045;-75
2021/03/25 03:26:26;;;;;;;54.95;27.83;;;;;;;8.34;52.13;100559.03;4970420;28;20039;-74
2021/03/25 03:29:03;;;;;;;55.47;27.98;;;;;;;8.32;52.22;100566.00;4972609;28;20054;-73
2021/03/25 03:31:38;;;;;;;50.17;27.40;;;;;;;8.30;52.26;100567.78;4968713;28;20471;-73
2021/03/25 03:34:09;;;;;;;55.63;27.60;;;;;;;8.33;52.06;100567.72;4967519;28;20063;-73
2021/03/25 03:36:36;;;;;;;58.38;31.08;;;;;;;8.33;52.15;100567.72;4970256;28;20089;-74
2021/03/25 03:39:07;;;;;;;63.08;30.70;;;;;;;8.29;52.42;100572.16;4972467;28;20048;-73
2021/03/25 03:41:36;;;;;;;56.00;28.87;;;;;;;8.29;52.27;100566.94;4967318;28;20054;-74
2021/03/25 03:44:07;;;;;;;65.53;30.33;;;;;;;8.31;52.47;100577.34;4972969;28;20316;-74
2021/03/25 03:46:37;;;;;;;68.38;32.20;;;;;;;8.33;52.57;100572.94;4968961;28;20059;-73
2021/03/25 03:49:09;;;;;;;66.90;31.40;;;;;;;8.33;52.54;100568.59;4968275;28;20482;-74
2021/03/25 03:51:41;;;;;;;62.20;32.40;;;;;;;8.35;52.65;100566.84;4967834;28;20051;-74
2021/03/25 03:54:08;;;;;;;62.80;30.60;;;;;;;8.38;52.38;100571.13;4970375;28;20484;-72
2021/03/25 03:56:41;;;;;;;61.15;30.20;;;;;;;8.37;52.52;100570.28;4970298;28;20054;-74
2021/03/25 03:59:12;;;;;;;59.95;30.20;;;;;;;8.39;52.80;100581.53;4972536;28;20043;-74
2021/03/25 04:01:45;;;;;;;60.53;29.52;;;;;;;8.38;52.60;100582.44;4991607;28;20078;-74
2021/03/25 04:04:17;;;;;;;59.05;29.05;;;;;;;8.39;52.73;100580.69;4983334;28;20463;-74
2021/03/25 04:06:49;;;;;;;62.28;31.38;;;;;;;8.41;52.66;100586.72;4964212;28;20051;-74
2021/03/25 04:09:21;;;;;;;68.20;32.78;;;;;;;8.38;52.83;100592.88;4970156;28;20051;-74
2021/03/25 04:11:51;;;;;;;61.75;32.05;;;;;;;8.36;52.89;100593.81;4970660;28;20147;-74
2021/03/25 04:14:22;;;;;;;64.22;33.15;;;;;;;8.30;52.92;100596.53;4966801;28;20058;-75
2021/03/25 04:16:51;;;;;;;47.90;23.35;;;;;;;8.27;53.03;100600.91;4966863;28;20114;-73
2021/03/25 04:19:20;;;;;;;60.38;30.38;;;;;;;8.24;53.10;100593.16;4970166;28;20055;-73
2021/03/25 04:21:52;;;;;;;63.72;30.38;;;;;;;8.21;53.06;100597.59;4970475;28;20058;-73
2021/03/25 04:24:23;;;;;;;60.40;27.17;;;;;;;8.22;52.77;100601.94;4975590;28;20055;-73
2021/03/25 04:26:56;;;;;;;61.35;27.77;;;;;;;8.24;52.98;100590.56;4975725;28;20062;-73
2021/03/25 04:29:28;;;;;;;66.35;29.27;;;;;;;8.27;52.85;100590.47;4993551;28;20505;-74
2021/03/25 04:31:56;;;;;;;56.13;28.33;;;;;;;8.25;52.88;100597.50;4994680;28;20081;-73
2021/03/25 04:34:23;;;;;;;55.72;28.13;;;;;;;8.19;53.03;100602.88;4995235;28;20058;-74
2021/03/25 04:36:49;;;;;;;59.03;29.13;;;;;;;8.16;53.07;100609.91;4994990;28;20054;-73
2021/03/25 04:39:18;;;;;;;57.42;27.45;;;;;;;8.14;53.11;100599.50;4995347;28;20097;-74
2021/03/25 04:41:46;;;;;;;58.22;29.70;;;;;;;8.19;52.91;100597.66;4994821;28;20050;-73
2021/03/25 04:44:24;;;;;;;48.22;25.92;;;;;;;8.21;52.85;100600.22;4995109;28;20058;-75
2021/03/25 04:46:59;;;;;;;58.38;29.23;;;;;;;8.23;52.83;100598.44;4994537;28;20458;-73
2021/03/25 04:49:31;;;;;;;57.28;27.48;;;;;;;8.21;52.91;100600.22;4994875;28;20070;-73
2021/03/25 04:51:59;;;;;;;58.20;27.75;;;;;;;8.20;52.91;100601.97;4994034;28;20475;-73
2021/03/25 04:54:31;;;;;;;59.38;28.13;;;;;;;8.21;52.83;100600.22;4988011;28;20403;-72
2021/03/25 04:57:08;;;;;;;73.38;37.53;;;;;;;8.23;52.81;100601.03;4978541;28;20121;-73
2021/03/25 04:59:37;;;;;;;87.53;42.30;;;;;;;8.26;52.74;100604.44;4986484;28;20055;-73
2021/03/25 05:02:06;;;;;;;68.22;32.88;;;;;;;8.24;52.68;100600.13;4975478;28;20085;-73
2021/03/25 05:04:36;;;;;;;69.90;36.03;;;;;;;8.26;52.52;100593.13;4973921;28;20518;-73
2021/03/25 05:07:05;;;;;;;91.18;42.08;;;;;;;8.27;52.51;100593.09;4974766;28;20054;-74
2021/03/25 05:09:34;;;;;;;69.78;33.67;;;;;;;8.26;52.70;100599.22;4974631;28;20502;-73
2021/03/25 05:12:02;;;;;;;69.30;30.40;;;;;;;8.23;52.60;100596.66;4979557;28;20415;-74
2021/03/25 05:14:29;;;;;;;68.05;29.58;;;;;;;8.25;52.76;100602.72;4981995;28;20487;-73
2021/03/25 05:17:13;;;;;;;67.55;32.22;;;;;;;8.21;52.82;100606.28;4974577;28;20038;-74
2021/03/25 05:19:54;;;;;;;59.42;30.45;;;;;;;8.22;52.83;100607.16;4972426;28;20053;-72
2021/03/25 05:22:27;;;;;;;54.45;28.15;;;;;;;8.23;52.71;100616.72;4973718;28;20511;-73
2021/03/25 05:25:01;;;;;;;63.03;29.40;;;;;;;8.29;52.79;100607.88;4972849;28;20051;-74
2021/03/25 05:27:33;;;;;;;64.68;29.48;;;;;;;8.29;52.77;100607.88;4974293;28;20177;-74
2021/03/25 05:30:01;;;;;;;63.60;31.83;;;;;;;8.30;52.77;100604.34;4955426;28;20056;-74
2021/03/25 05:32:32;;;;;;;62.90;29.92;;;;;;;8.32;52.70;100606.03;4960105;28;20046;-75
2021/03/25 05:35:04;;;;;;;64.00;29.17;;;;;;;8.36;52.86;100604.25;4970042;28;20086;-73
2021/03/25 05:37:32;;;;;;;58.33;29.52;;;;;;;8.36;52.64;100609.50;4975399;28;20047;-74
2021/03/25 05:39:58;;;;;;;60.58;31.55;;;;;;;8.27;53.02;100606.16;4973330;28;20486;-74
2021/03/25 05:42:31;;;;;;;75.05;31.80;;;;;;;8.20;53.19;100601.97;4975244;28;20109;-75
2021/03/25 05:45:25;;;;;;;76.18;35.80;;;;;;;8.12;53.32;100606.53;4966622;28;20059;-74
2021/03/25 05:48:24;;;;;;;77.97;34.00;;;;;;;8.13;53.41;100613.47;4969615;28;20050;-74
2021/03/25 05:50:57;;;;;;;65.93;31.90;;;;;;;8.15;53.42;100616.03;4964324;28;20106;-75
2021/03/25 05:53:48;;;;;;;71.38;33.95;;;;;;;8.13;53.36;100605.63;4970376;28;20550;-75
2021/03/25 05:56:26;;;;;;;65.65;30.80;;;;;;;8.22;53.29;100615.84;4972263;28;20483;-75
2021/03/25 05:58:56;;;;;;;61.28;30.42;;;;;;;8.33;53.17;100615.63;4977185;28;20082;-75
2021/03/25 06:01:41;;;;;;;73.35;30.42;;;;;;;8.35;53.22;100618.22;4955934;28;20070;-75
2021/03/25 06:04:14;;;;;;;70.72;35.72;;;;;;;8.30;53.31;100620.03;4971216;28;20047;-74
2021/03/25 06:07:01;;;;;;;83.15;38.65;;;;;;;8.32;53.24;100615.63;4974301;28;20337;-72
2021/03/25 06:09:39;;;;;;;63.40;31.25;;;;;;;8.37;53.16;100627.75;4993699;28;20047;-73
2021/03/25 06:12:17;;;;;;;66.45;31.08;;;;;;;8.48;52.93;100617.03;4965846;28;20047;-74
2021/03/25 06:14:55;;;;;;;58.78;30.42;;;;;;;8.53;52.85;100617.75;4994647;28;20610;-79
2021/03/25 06:17:37;;;;;;;63.15;29.20;;;;;;;8.60;52.90;100618.50;4986539;28;20101;-74
2021/03/25 06:20:20;;;;;;;64.00;30.67;;;;;;;8.67;52.69;100620.91;4965401;28;20062;-74
2021/03/25 06:22:58;;;;;;;60.00;28.98;;;;;;;8.83;52.25;100624.88;4962524;28;20145;-75
2021/03/25 06:25:52;;;;;;;67.53;30.65;;;;;;;9.02;52.01;100616.56;4957557;28;20058;-76
2021/03/25 06:28:24;;;;;;;63.03;27.58;;;;;;;8.97;51.95;100619.28;4969591;28;20058;-75
2021/03/25 06:31:21;;;;;;;57.50;29.10;;;;;;;8.95;52.09;100620.19;4966318;28;20094;-76
2021/03/25 06:34:02;;;;;;;56.80;27.05;;;;;;;8.94;52.03;100616.72;4961106;28;20062;-77
2021/03/25 06:36:46;;;;;;;60.60;30.58;;;;;;;9.03;51.57;100628.72;4960972;28;20276;-76
2021/03/25 06:39:24;;;;;;;73.10;32.58;;;;;;;9.14;51.75;100627.53;4967107;28;20046;-76
2021/03/25 06:41:59;;;;;;;55.65;29.45;;;;;;;9.23;51.55;100628.22;4966429;28;20138;-76
2021/03/25 06:44:35;;;;;;;57.95;29.13;;;;;;;9.27;51.28;100630.69;4963727;28;20139;-75
2021/03/25 06:47:08;;;;;;;63.78;28.48;;;;;;;9.41;51.05;100630.34;4965823;28;20073;-76
2021/03/25 06:49:40;;;;;;;57.83;28.75;;;;;;;9.48;50.82;100622.25;4964736;28;20047;-75
2021/03/25 06:52:15;;;;;;;60.42;28.33;;;;;;;9.58;50.60;100621.97;4971948;28;20110;-76
2021/03/25 06:54:42;;;;;;;58.13;28.88;;;;;;;9.58;50.60;100627.22;4983551;28;20078;-72
2021/03/25 06:57:16;;;;;;;63.20;29.73;;;;;;;9.74;50.31;100616.28;4972305;28;20082;-74
2021/03/25 06:59:44;;;;;;;61.00;30.13;;;;;;;10.12;49.68;100630.00;4961074;28;20058;-74
2021/03/25 07:02:18;;;;;;;57.60;29.50;;;;;;;10.24;49.14;100623.56;4960827;28;20066;-77
2021/03/25 07:04:47;;;;;;;59.20;29.15;;;;;;;10.31;48.99;100630.31;4987826;28;20050;-74
2021/03/25 07:07:18;;;;;;;58.78;30.60;;;;;;;10.41;48.83;100623.91;4966193;28;20053;-74
2021/03/25 07:09:46;;;;;;;61.97;28.58;;;;;;;10.64;48.38;100625.78;4965398;28;20039;-76
2021/03/25 07:12:18;;;;;;;53.95;31.42;;;;;;;10.75;48.05;100625.41;4978650;28;20090;-75
2021/03/25 07:14:46;;;;;;;66.18;32.33;;;;;;;10.86;48.01;100629.41;4982377;28;20080;-75
2021/03/25 07:17:14;;;;;;;61.13;30.52;;;;;;;11.02;47.79;100627.09;4989153;28;20050;-74
2021/03/25 07:46:19;;;;;;;50.92;29.98;;;;;;;12.56;44.34;100639.78;5123133;27;20373;-78
2021/03/25 07:48:57;;;;;;;56.08;29.58;;;;;;;13.12;43.44;100633.97;5131218;27;20124;-76
2021/03/25 07:51:23;;;;;;;58.53;27.90;;;;;;;13.29;43.02;100638.50;5115411;27;20495;-76
2021/03/25 07:54:07;;;;;;;52.90;28.77;;;;;;;13.41;42.86;100638.00;5112723;27;20117;-77
2021/03/25 07:56:34;;;;;;;54.97;29.33;;;;;;;13.66;42.25;100640.38;5116298;28;20091;-77
2021/03/25 07:59:00;;;;;;;54.75;28.55;;;;;;;13.94;41.86;100634.72;5116911;27;20080;-75
2021/03/25 08:01:27;;;;;;;54.78;29.70;;;;;;;14.30;41.09;100626.88;5116455;28;20047;-77
2021/03/25 08:03:56;;;;;;;57.97;29.17;;;;;;;14.66;40.40;100628.69;5117343;28;20071;-74
2021/03/25 08:06:26;;;;;;;50.05;27.58;;;;;;;14.94;39.92;100631.66;5116601;27;20467;-74
2021/03/25 08:09:07;;;;;;;51.03;28.43;;;;;;;16.51;37.68;100636.47;5108456;28;20068;-75
2021/03/25 08:11:35;;;;;;;46.67;26.98;;;;;;;17.11;36.43;100636.56;5116233;28;20047;-75
2021/03/25 08:14:13;;;;;;;51.75;28.50;;;;;;;18.64;33.67;100627.03;5112475;28;20051;-74
2021/03/25 08:16:45;;;;;;;48.67;27.83;;;;;;;20.10;31.87;100625.75;5113236;28;20040;-75
2021/03/25 08:19:39;;;;;;;42.03;24.88;;;;;;;21.97;29.43;100632.94;5113521;28;20435;-75
2021/03/25 08:22:23;;;;;;;49.20;27.52;;;;;;;24.47;26.12;100628.56;5112439;28;20110;-75
2021/03/25 08:25:19;;;;;;;46.60;27.33;;;;;;;26.06;24.35;100621.72;5109835;28;20089;-75
2021/03/25 08:27:57;;;;;;;45.55;28.98;;;;;;;27.49;22.63;100625.28;5098478;28;20056;-76
2021/03/25 08:30:50;;;;;;;43.08;27.45;;;;;;;28.42;22.08;100618.97;5111270;28;20089;-75
2021/03/25 08:33:26;;;;;;;39.33;27.27;;;;;;;28.75;20.72;100611.78;5103266;28;20043;-76
2021/03/25 08:36:02;;;;;;;36.83;25.67;;;;;;;28.47;21.13;100623.88;5110815;27;20475;-76
2021/03/25 08:38:42;;;;;;;36.65;25.02;;;;;;;28.68;20.81;100616.16;5107797;28;20039;-75
2021/03/25 08:41:14;;;;;;;38.90;26.65;;;;;;;28.90;20.53;100620.06;5113783;28;20055;-76
2021/03/25 08:43:46;;;;;;;40.53;28.05;;;;;;;29.52;19.53;100619.53;5118561;27;20440;-76
2021/03/25 08:46:20;;;;;;;36.08;25.77;;;;;;;29.67;19.44;100620.53;5108680;28;20426;-76
2021/03/25 08:48:55;;;;;;;38.97;26.02;;;;;;;29.14;19.91;100619.22;5103583;28;20070;-76
2021/03/25 08:51:26;;;;;;;37.15;25.60;;;;;;;28.77;19.89;100617.88;5100533;28;20056;-76
2021/03/25 08:53:58;;;;;;;36.28;24.65;;;;;;;29.01;19.35;100616.22;5094453;28;20055;-75
2021/03/25 08:56:36;;;;;;;34.92;22.52;;;;;;;28.92;19.48;100619.91;5097994;28;20043;-76
2021/03/25 08:59:07;;;;;;;38.83;23.50;;;;;;;28.78;19.54;100610.63;5094790;28;20044;-76
2021/03/25 09:01:41;;;;;;;32.53;23.15;;;;;;;27.84;20.24;100608.97;5100075;28;20064;-74
2021/03/25 09:04:11;;;;;;;33.00;22.70;;;;;;;27.68;20.16;100610.75;5104388;28;20051;-75
2021/03/25 09:06:39;;;;;;;33.80;22.20;;;;;;;28.92;18.70;100601.84;5100182;28;20040;-77
2021/03/25 09:09:37;;;;;;;32.85;22.27;;;;;;;29.10;18.20;100609.78;5098364;28;20565;-77
2021/03/25 09:12:14;;;;;;;35.47;24.02;;;;;;;27.51;19.20;100607.94;5095949;28;20123;-73
2021/03/25 09:14:40;;;;;;;39.13;23.13;;;;;;;28.02;18.67;100616.13;5099572;28;20087;-74
2021/03/25 09:17:08;;;;;;;34.28;24.40;;;;;;;26.21;20.25;100622.88;5095200;28;20048;-76
2021/03/25 09:19:41;;;;;;;37.90;24.08;;;;;;;23.87;22.61;100616.94;5101418;28;20381;-77
2021/03/25 09:22:08;;;;;;;36.45;24.15;;;;;;;24.10;22.41;100611.38;5100417;28;20085;-78
2021/03/25 09:24:35;;;;;;;35.85;24.20;;;;;;;23.41;22.75;100610.22;5101476;28;20078;-78
2021/03/25 09:27:05;;;;;;;36.38;23.77;;;;;;;22.61;23.30;100609.03;5100085;28;20469;-78
2021/03/25 09:29:47;;;;;;;35.95;23.83;;;;;;;21.61;24.74;100609.03;5099223;28;20044;-80
2021/03/25 09:32:34;;;;;;;34.25;22.33;;;;;;;21.15;25.28;100603.75;5098758;28;20520;-78
2021/03/25 09:35:21;;;;;;;34.55;22.80;;;;;;;20.91;25.41;100610.94;5102772;28;20051;-78
2021/03/25 09:37:53;;;;;;;34.55;23.60;;;;;;;20.31;26.19;100602.03;5093955;28;20236;-79
2021/03/25 09:40:44;;;;;;;35.03;22.80;;;;;;;21.36;24.66;100600.41;5095299;28;20509;-79
2021/03/25 09:43:27;;;;;;;38.03;22.13;;;;;;;21.74;24.61;100589.41;5095269;28;20047;-78
2021/03/25 09:45:55;;;;;;;38.60;22.20;;;;;;;21.24;24.98;100602.25;5095901;28;20525;-78
2021/03/25 09:48:26;;;;;;;38.53;22.42;;;;;;;20.65;25.73;100607.59;5095124;28;20040;-78
2021/03/25 09:51:06;;;;;;;36.50;24.08;;;;;;;20.12;26.89;100598.16;5093619;28;20032;-77
2021/03/25 09:53:46;;;;;;;37.33;24.15;;;;;;;19.97;26.81;100594.78;5099880;28;20466;-79
2021/03/25 09:56:30;;;;;;;38.95;24.77;;;;;;;20.17;26.66;100593.34;5100042;28;20072;-78
2021/03/25 09:58:57;;;;;;;38.88;24.02;;;;;;;20.23;26.45;100590.28;5093789;28;20139;-76
2021/03/25 10:01:42;;;;;;;36.85;24.50;;;;;;;20.39;26.45;100586.34;5098757;28;20417;-77
2021/03/25 10:04:27;;;;;;;35.42;23.45;;;;;;;20.10;27.14;100595.63;5097059;28;20040;-75
2021/03/25 10:07:18;;;;;;;51.83;25.58;;;;;;;19.54;27.48;100595.19;5091796;28;20536;-78
2021/03/25 10:10:05;;;;;;;47.90;27.60;;;;;;;18.96;28.19;100588.56;5095962;28;20052;-75
2021/03/25 10:12:52;;;;;;;37.03;23.35;;;;;;;18.79;28.81;100586.19;5099854;28;20044;-74
2021/03/25 10:15:44;;;;;;;41.80;25.60;;;;;;;18.96;28.56;100583.25;5103647;28;20127;-73
2021/03/25 10:18:13;;;;;;;38.83;24.13;;;;;;;19.34;28.05;100587.72;5097474;28;20051;-74
2021/03/25 10:20:55;;;;;;;38.90;24.40;;;;;;;19.48;27.94;100588.47;5095449;28;20048;-75
2021/03/25 10:23:25;;;;;;;37.60;23.45;;;;;;;19.53;27.29;100576.66;5097625;28;20082;-74
2021/03/25 10:25:56;;;;;;;45.53;26.25;;;;;;;19.86;27.49;100581.44;5098839;28;20043;-75
2021/03/25 10:28:27;;;;;;;42.60;25.60;;;;;;;19.94;27.04;100568.41;5099190;28;20037;-74
2021/03/25 10:30:59;;;;;;;42.63;26.02;;;;;;;20.13;27.00;100574.09;5099009;28;20051;-75
2021/03/25 10:33:26;;;;;;;43.83;26.33;;;;;;;20.11;26.76;100576.03;5094367;28;20047;-74
2021/03/25 10:35:56;;;;;;;39.17;24.48;;;;;;;19.77;27.12;100578.44;5097997;28;20138;-74
2021/03/25 10:38:27;;;;;;;41.33;26.17;;;;;;;19.41;27.47;100567.75;5098213;28;20048;-75
2021/03/25 10:40:58;;;;;;;45.15;26.10;;;;;;;19.54;27.70;100571.25;5097909;28;20778;-73
2021/03/25 10:43:30;;;;;;;39.97;24.13;;;;;;;19.65;27.76;100571.34;5094357;28;20502;-76
2021/03/25 10:45:58;;;;;;;44.95;27.27;;;;;;;19.69;27.99;100575.50;5096780;28;20112;-75
2021/03/25 10:48:30;;;;;;;46.65;27.17;;;;;;;19.69;27.90;100572.84;5098038;28;20051;-74
2021/03/25 10:51:00;;;;;;;47.47;25.95;;;;;;;19.58;27.77;100571.91;5098733;28;20076;-75
2021/03/25 10:53:33;;;;;;;43.50;27.80;;;;;;;19.36;28.08;100561.88;5102114;28;20075;-74
2021/03/25 10:56:07;;;;;;;46.47;26.60;;;;;;;19.19;28.49;100571.03;5096762;28;20118;-75
2021/03/25 10:58:37;;;;;;;45.55;28.10;;;;;;;19.33;28.02;100567.41;5098816;28;20048;-75
2021/03/25 11:01:07;;;;;;;35.07;26.93;;;;;;;19.40;27.71;100564.22;5099114;28;20044;-74
2021/03/25 11:03:37;;;;;;;43.00;24.63;;;;;;;19.41;27.90;100560.63;5100441;28;20055;-74
2021/03/25 11:06:05;;;;;;;43.40;26.27;;;;;;;19.55;28.09;100554.34;5096834;28;20048;-74
2021/03/25 11:08:39;;;;;;;42.35;26.13;;;;;;;19.57;27.87;100549.75;5094205;28;20545;-77
2021/03/25 11:11:14;;;;;;;39.58;26.40;;;;;;;19.50;27.86;100551.13;5094855;28;20255;-79
2021/03/25 11:13:41;;;;;;;44.15;26.77;;;;;;;19.27;28.33;100551.91;5101836;28;20044;-77
2021/03/25 11:16:17;;;;;;;48.70;27.10;;;;;;;19.12;28.40;100551.13;5096298;28;20035;-78
2021/03/25 11:18:47;;;;;;;47.85;26.63;;;;;;;19.13;28.40;100545.72;5097202;28;20364;-77
2021/03/25 11:21:18;;;;;;;46.25;27.92;;;;;;;19.08;27.95;100552.31;5094926;28;20496;-77
2021/03/25 11:23:46;;;;;;;42.22;28.02;;;;;;;19.06;28.83;100548.91;5105699;28;20196;-77
2021/03/25 11:26:16;;;;;;;48.63;28.50;;;;;;;19.18;28.76;100548.94;5096316;28;20052;-77
2021/03/25 11:28:42;;;;;;;48.78;29.25;;;;;;;19.14;28.56;100534.13;5097134;28;20048;-78
2021/03/25 11:31:22;;;;;;;42.92;28.35;;;;;;;19.14;28.67;100535.94;5096766;28;20542;-77
2021/03/25 11:33:49;;;;;;;45.10;28.05;;;;;;;19.01;29.12;100533.28;5096189;28;20044;-77
2021/03/25 11:36:35;;;;;;;47.13;28.65;;;;;;;19.11;29.15;100525.53;5097464;28;20093;-77
2021/03/25 11:39:16;;;;;;;43.80;27.52;;;;;;;19.06;28.77;100528.50;5094995;28;20510;-77
2021/03/25 11:41:44;;;;;;;41.97;26.65;;;;;;;18.83;29.56;100526.59;5098922;28;20551;-77
2021/03/25 11:44:11;;;;;;;50.38;27.75;;;;;;;18.48;29.75;100521.81;5096460;28;20415;-77
2021/03/25 11:46:40;;;;;;;42.25;27.65;;;;;;;18.23;30.36;100525.25;5096266;28;20490;-78
2021/03/25 11:49:10;;;;;;;46.80;29.23;;;;;;;18.09;30.27;100511.16;5094753;28;20036;-77
2021/03/25 11:51:41;;;;;;;44.80;27.87;;;;;;;17.87;30.96;100515.22;5094999;28;20052;-78
2021/03/25 11:54:25;;;;;;;38.97;26.17;;;;;;;17.68;31.15;100509.38;5095699;28;20454;-78
2021/03/25 11:56:55;;;;;;;45.85;28.40;;;;;;;17.49;31.08;100509.69;5098413;28;20050;-77
2021/03/25 11:59:34;;;;;;;52.25;27.27;;;;;;;17.44;31.10;100508.25;5101142;28;20131;-78
2021/03/25 12:02:28;;;;;;;42.28;26.63;;;;;;;17.59;30.99;100499.34;5099832;28;20036;-77
2021/03/25 12:04:55;;;;;;;44.22;28.63;;;;;;;17.57;31.02;100506.53;5096515;28;20072;-78
2021/03/25 12:07:22;;;;;;;44.30;28.90;;;;;;;17.61;31.11;100497.44;5101044;28;20032;-76
2021/03/25 12:10:14;;;;;;;45.90;29.75;;;;;;;17.74;30.66;100495.75;5100136;28;20134;-78